createdAt,value
2023-01-01T00:01:14.582Z,87093.97
2023-01-01T00:03:41.786Z,87091.75
2023-01-01T00:06:11.194Z,87072.94
2023-01-01T00:08:39.020Z,87082.63
2023-01-01T00:11:07.795Z,87072.03
2023-01-01T00:13:37.001Z,87095.72
2023-01-01T00:16:12.266Z,87096.41
2023-01-01T00:18:40.917Z,87095.00
2023-01-01T00:21:13.873Z,87095.00
2023-01-01T00:23:41.426Z,87092.31
2023-01-01T00:26:13.299Z,87097.81
2023-01-01T00:28:40.753Z,87101.75
2023-01-01T00:31:08.341Z,87091.97
2023-01-01T00:33:35.366Z,87101.66
2023-01-01T00:36:15.150Z,87107.13
2023-01-01T00:38:43.597Z,87105.66
2023-01-01T00:41:11.378Z,87118.09
2023-01-01T00:43:38.430Z,87114.03
2023-01-01T00:46:06.629Z,87115.53
2023-01-01T00:48:34.351Z,87106.31
2023-01-01T00:51:01.411Z,87115.16
2023-01-01T00:53:28.496Z,87096.78
2023-01-01T00:55:56.588Z,87119.00
2023-01-01T00:58:25.413Z,87081.63
2023-01-01T01:00:53.563Z,87111.69
2023-01-01T01:03:30.825Z,87105.38
2023-01-01T01:06:03.971Z,87104.72
2023-01-01T01:08:33.411Z,87108.81
2023-01-01T01:11:18.481Z,87103.97
2023-01-01T01:13:46.739Z,87101.16
2023-01-01T01:16:20.615Z,87105.25
2023-01-01T01:18:51.769Z,87056.19
2023-01-01T01:21:20.199Z,87044.28
2023-01-01T01:23:48.842Z,87103.09
2023-01-01T01:26:24.598Z,87097.69
2023-01-01T01:28:52.760Z,87092.13
2023-01-01T01:31:22.282Z,87101.00
2023-01-01T01:33:50.174Z,87021.63
2023-01-01T01:36:18.717Z,87095.81
2023-01-01T01:38:46.364Z,87088.22
2023-01-01T01:41:26.800Z,87094.41
2023-01-01T01:43:58.164Z,87085.50
2023-01-01T01:46:33.608Z,87088.34
2023-01-01T01:49:27.982Z,87044.50
2023-01-01T01:51:56.387Z,87082.06
2023-01-01T01:54:25.792Z,87051.88
2023-01-01T01:56:58.413Z,87077.19
2023-01-01T01:59:30.039Z,87035.84
2023-01-01T02:01:57.786Z,87074.47
2023-01-01T02:04:25.008Z,87073.81
2023-01-01T02:06:53.114Z,87073.91
2023-01-01T02:09:20.960Z,87083.59
2023-01-01T02:11:47.982Z,87060.13
2023-01-01T02:14:14.955Z,87060.59
2023-01-01T02:16:51.320Z,87063.97
2023-01-01T02:19:50.595Z,87065.47
2023-01-01T02:22:26.171Z,87052.53
2023-01-01T02:25:43.977Z,87074.81
2023-01-01T02:28:24.660Z,87073.53
2023-01-01T02:30:53.968Z,87067.28
2023-01-01T02:33:25.873Z,87058.81
2023-01-01T02:36:02.280Z,87074.94
2023-01-01T02:38:36.222Z,87041.09
2023-01-01T02:41:07.876Z,87074.16
2023-01-01T02:43:35.187Z,87066.41
2023-01-01T02:46:07.824Z,87076.91
2023-01-01T02:48:49.102Z,87072.03
2023-01-01T02:51:30.977Z,87084.31
2023-01-01T02:54:23.590Z,87062.09
2023-01-01T02:57:00.365Z,87080.41
2023-01-01T03:00:18.907Z,87085.00
2023-01-01T03:03:17.017Z,87078.84
2023-01-01T03:06:27.020Z,87073.63
2023-01-01T03:09:20.244Z,87084.19
2023-01-01T03:11:47.073Z,87081.63
2023-01-01T03:14:35.892Z,87076.81
2023-01-01T03:17:26.971Z,87075.31
2023-01-01T03:19:56.552Z,87082.84
2023-01-01T03:22:30.040Z,87085.50
2023-01-01T03:25:03.053Z,87051.88
2023-01-01T03:27:50.399Z,87078.41
2023-01-01T03:30:20.253Z,87095.00
2023-01-01T03:33:03.464Z,87072.78
2023-01-01T03:35:39.795Z,87083.41
2023-01-01T03:38:12.367Z,87078.47
2023-01-01T03:40:40.234Z,87053.38
2023-01-01T03:43:22.799Z,87053.13
2023-01-01T03:45:52.271Z,87085.38
2023-01-01T03:48:19.431Z,87062.34
2023-01-01T03:50:57.656Z,87084.25
2023-01-01T03:53:40.522Z,87094.44
2023-01-01T03:56:17.802Z,87088.88
2023-01-01T03:59:23.981Z,87078.41
2023-01-01T04:01:56.959Z,87069.81
2023-01-01T04:04:27.032Z,87089.53
2023-01-01T04:06:55.300Z,87057.28
2023-01-01T04:09:29.618Z,87066.81
2023-01-01T04:12:01.700Z,87098.34
2023-01-01T04:14:39.503Z,87099.59
2023-01-01T04:17:08.099Z,87107.03
2023-01-01T04:19:35.287Z,87102.03
2023-01-01T04:22:03.780Z,87092.47
2023-01-01T04:24:30.720Z,87110.69
2023-01-01T04:26:58.209Z,87084.50
2023-01-01T04:29:25.078Z,87070.75
2023-01-01T04:31:52.243Z,87106.66
2023-01-01T04:34:19.222Z,87104.13
2023-01-01T04:36:46.602Z,87111.72
2023-01-01T04:39:13.604Z,87074.47
2023-01-01T04:41:40.675Z,87085.78
2023-01-01T04:44:08.645Z,87104.25
2023-01-01T04:46:35.595Z,87094.50
2023-01-01T04:49:02.637Z,87063.53
2023-01-01T04:51:29.617Z,87088.16
2023-01-01T04:53:56.440Z,87090.19
2023-01-01T04:56:23.741Z,87093.09
2023-01-01T04:58:50.839Z,87081.78
2023-01-01T05:01:23.729Z,87101.38
2023-01-01T05:03:50.900Z,87112.03
2023-01-01T05:06:17.895Z,87102.41
2023-01-01T05:08:47.808Z,87103.81
2023-01-01T05:11:20.840Z,87088.34
2023-01-01T05:13:50.206Z,87075.59
2023-01-01T05:16:19.895Z,87105.97
2023-01-01T05:18:52.303Z,87103.88
2023-01-01T05:21:22.200Z,87103.88
2023-01-01T05:23:49.730Z,87106.63
2023-01-01T05:26:19.132Z,87061.97
2023-01-01T05:28:47.093Z,87085.41
2023-01-01T05:31:19.341Z,87088.19
2023-01-01T05:33:46.775Z,87077.00
2023-01-01T05:36:22.901Z,87074.47
2023-01-01T05:38:51.012Z,87064.53
2023-01-01T05:41:19.325Z,87074.00
2023-01-01T05:43:46.703Z,87100.28
2023-01-01T05:46:16.555Z,87100.28
2023-01-01T05:48:43.975Z,87106.09
2023-01-01T05:51:16.919Z,87077.75
2023-01-01T05:53:44.799Z,87123.41
2023-01-01T05:56:12.866Z,87110.78
2023-01-01T05:58:40.446Z,87088.88
2023-01-01T06:01:10.505Z,87130.84
2023-01-01T06:03:37.867Z,87092.31
2023-01-01T06:06:11.503Z,87126.91
2023-01-01T06:08:38.671Z,87123.97
2023-01-01T06:11:08.235Z,87125.63
2023-01-01T06:13:35.818Z,87130.56
2023-01-01T06:16:03.194Z,87132.78
2023-01-01T06:18:32.340Z,87075.78
2023-01-01T06:21:06.248Z,87124.09
2023-01-01T06:23:33.377Z,87127.84
2023-01-01T06:26:11.620Z,87107.50
2023-01-01T06:28:39.455Z,87093.84
2023-01-01T06:31:08.165Z,87126.34
2023-01-01T06:33:35.302Z,87118.75
2023-01-01T06:36:04.519Z,87140.97
2023-01-01T06:38:33.281Z,87118.63
2023-01-01T06:41:05.825Z,87119.78
2023-01-01T06:43:34.983Z,87144.72
2023-01-01T06:46:04.060Z,87139.59
2023-01-01T06:48:32.949Z,87145.00
2023-01-01T06:51:06.428Z,87146.47
2023-01-01T06:53:33.777Z,87154.88
2023-01-01T06:56:00.910Z,87146.78
2023-01-01T06:58:28.154Z,87153.53
2023-01-01T07:00:55.387Z,87154.81
2023-01-01T07:03:22.388Z,87149.91
2023-01-01T07:05:49.461Z,87158.44
2023-01-01T07:08:16.432Z,87147.78
2023-01-01T07:10:43.409Z,87126.28
2023-01-01T07:13:10.411Z,87134.56
2023-01-01T07:15:39.839Z,87138.78
2023-01-01T07:18:06.810Z,87102.59
2023-01-01T07:20:33.818Z,87146.66
2023-01-01T07:23:02.442Z,87119.41
2023-01-01T07:25:29.380Z,87142.78
2023-01-01T07:27:56.376Z,87094.44
2023-01-01T07:30:23.375Z,87160.03
2023-01-01T07:32:55.916Z,87142.00
2023-01-01T07:35:23.102Z,87128.25
2023-01-01T07:37:50.088Z,87154.94
2023-01-01T07:40:17.208Z,87168.06
2023-01-01T07:42:44.291Z,87166.19
2023-01-01T07:45:13.653Z,87143.63
2023-01-01T07:47:40.692Z,87155.78
2023-01-01T07:50:07.969Z,87131.56
2023-01-01T07:52:34.963Z,87157.59
2023-01-01T07:55:02.045Z,87155.03
2023-01-01T07:57:29.074Z,87144.06
2023-01-01T07:59:56.061Z,87120.25
2023-01-01T08:02:23.128Z,87162.97
2023-01-01T08:04:50.233Z,87147.28
2023-01-01T08:07:17.224Z,87149.72
2023-01-01T08:09:44.257Z,87168.84
2023-01-01T08:12:11.326Z,87130.03
2023-01-01T08:14:38.477Z,87163.25
2023-01-01T08:17:05.444Z,87158.63
2023-01-01T08:19:32.458Z,87124.13
2023-01-01T08:21:59.438Z,87159.56
2023-01-01T08:24:26.445Z,87149.47
2023-01-01T08:26:53.645Z,87154.56
2023-01-01T08:29:20.832Z,87164.47
2023-01-01T08:31:47.968Z,87142.38
2023-01-01T08:34:15.080Z,87153.91
2023-01-01T08:36:42.491Z,87121.88
2023-01-01T08:39:09.826Z,87145.88
2023-01-01T08:41:37.904Z,87141.84
2023-01-01T08:44:04.963Z,87089.50
2023-01-01T08:46:34.313Z,87152.59
2023-01-01T08:49:01.285Z,87150.66
2023-01-01T08:51:29.899Z,87156.25
2023-01-01T08:53:56.876Z,87168.91
2023-01-01T08:56:23.838Z,87175.91
2023-01-01T08:58:50.970Z,87163.59
2023-01-01T09:01:21.888Z,87142.78
2023-01-01T09:03:49.863Z,87165.16
2023-01-01T09:06:16.881Z,87137.97
2023-01-01T09:08:43.734Z,87140.44
2023-01-01T09:11:29.494Z,87156.50
2023-01-01T09:13:56.603Z,87163.63
2023-01-01T09:16:23.597Z,87129.66
2023-01-01T09:18:50.741Z,87139.69
2023-01-01T09:21:17.743Z,87128.47
2023-01-01T09:23:44.756Z,87153.94
2023-01-01T09:26:11.917Z,87119.94
2023-01-01T09:28:39.139Z,87134.78
2023-01-01T09:31:06.618Z,87146.22
2023-01-01T09:33:34.650Z,87151.88
2023-01-01T09:36:30.823Z,87144.47
2023-01-01T09:38:59.605Z,87142.59
2023-01-01T09:41:48.908Z,87142.75
2023-01-01T09:45:00.534Z,87145.69
2023-01-01T09:47:38.531Z,87129.13
2023-01-01T09:50:19.113Z,87137.13
2023-01-01T09:52:52.593Z,87142.78
2023-01-01T09:55:27.258Z,87130.47
2023-01-01T09:57:56.193Z,87137.53
2023-01-01T10:00:23.513Z,87112.69
2023-01-01T10:02:54.008Z,87128.88
2023-01-01T10:05:21.037Z,87131.81
2023-01-01T10:07:58.065Z,87122.13
2023-01-01T10:10:52.780Z,87126.56
2023-01-01T10:13:29.525Z,87073.09
2023-01-01T10:16:01.637Z,87093.50
2023-01-01T10:18:34.918Z,87113.09
2023-01-01T10:21:20.348Z,87107.66
2023-01-01T10:23:55.640Z,87096.50
2023-01-01T10:26:26.392Z,87084.16
2023-01-01T10:29:37.818Z,87103.78
2023-01-01T10:32:18.414Z,87101.16
2023-01-01T10:34:45.775Z,87100.50
2023-01-01T10:37:15.217Z,87097.09
2023-01-01T10:39:43.791Z,87079.72
2023-01-01T10:42:15.972Z,87099.28
2023-01-01T10:44:43.966Z,87052.06
2023-01-01T10:47:19.861Z,87090.34
2023-01-01T10:49:58.295Z,87086.19
2023-01-01T10:52:56.364Z,87084.91
2023-01-01T10:55:27.380Z,87090.47
2023-01-01T10:57:54.372Z,87083.56
2023-01-01T11:00:24.186Z,87041.25
2023-01-01T11:03:26.539Z,87075.38
2023-01-01T11:06:02.984Z,87083.75
2023-01-01T11:08:32.234Z,87083.75
2023-01-01T11:11:02.912Z,87064.34
2023-01-01T11:13:31.448Z,87062.97
2023-01-01T11:15:59.266Z,87039.38
2023-01-01T11:18:36.138Z,87087.31
2023-01-01T11:21:05.751Z,87083.88
2023-01-01T11:23:33.299Z,87082.50
2023-01-01T11:26:04.489Z,87075.59
2023-01-01T11:28:37.569Z,87058.25
2023-01-01T11:31:19.003Z,87072.19
2023-01-01T11:33:50.037Z,87052.72
2023-01-01T11:36:30.145Z,87067.34
2023-01-01T11:39:19.394Z,87069.44
2023-01-01T11:41:52.235Z,87062.47
2023-01-01T11:44:36.715Z,87046.53
2023-01-01T11:47:06.788Z,87013.19
2023-01-01T11:49:34.856Z,87045.16
2023-01-01T11:52:28.771Z,87067.38
2023-01-01T11:55:04.704Z,87034.06
2023-01-01T11:57:33.051Z,87054.88
2023-01-01T12:00:04.039Z,87057.69
2023-01-01T12:02:54.980Z,87027.13
2023-01-01T12:05:37.815Z,87049.34
2023-01-01T12:08:09.266Z,87038.25
2023-01-01T12:10:52.775Z,87061.84
2023-01-01T12:13:26.002Z,87034.06
2023-01-01T12:16:16.997Z,87054.91
2023-01-01T12:18:48.563Z,87048.66
2023-01-01T12:21:28.369Z,87026.44
2023-01-01T12:23:56.243Z,87004.91
2023-01-01T12:26:42.758Z,87025.72
2023-01-01T12:29:40.138Z,87039.63
2023-01-01T12:32:38.256Z,87041.00
2023-01-01T12:35:22.217Z,87034.09
2023-01-01T12:38:09.155Z,87035.47
2023-01-01T12:40:57.929Z,87046.56
2023-01-01T12:43:32.462Z,87035.44
2023-01-01T12:46:20.883Z,87042.38
2023-01-01T12:48:47.760Z,87046.56
2023-01-01T12:51:42.845Z,87044.47
2023-01-01T12:54:24.750Z,87047.94
2023-01-01T12:57:09.397Z,87032.00
2023-01-01T12:59:40.289Z,87047.25
2023-01-01T13:02:24.052Z,87041.72
2023-01-01T13:04:59.610Z,87050.75
2023-01-01T13:07:39.593Z,87048.66
2023-01-01T13:10:24.086Z,87023.66
2023-01-01T13:12:53.664Z,87041.00
2023-01-01T13:15:38.868Z,87050.03
2023-01-01T13:18:16.170Z,87057.69
2023-01-01T13:20:54.244Z,87050.75
2023-01-01T13:23:30.179Z,87057.69
2023-01-01T13:26:21.968Z,87056.28
2023-01-01T13:28:58.283Z,87061.13
2023-01-01T13:31:40.388Z,87060.41
2023-01-01T13:34:35.584Z,87060.41
2023-01-01T13:37:11.528Z,87065.91
2023-01-01T13:39:57.023Z,87067.25
2023-01-01T13:42:52.210Z,87069.34
2023-01-01T13:46:01.087Z,87071.38
2023-01-01T13:48:43.909Z,87070.66
2023-01-01T13:51:54.812Z,87068.53
2023-01-01T13:54:16.060Z,87070.56
2023-01-01T13:57:00.365Z,87052.50
2023-01-01T13:59:55.173Z,87046.16
2023-01-01T14:02:33.680Z,87037.72
2023-01-01T14:05:14.530Z,87068.22
2023-01-01T14:07:52.447Z,87070.94
2023-01-01T14:10:33.443Z,87080.56
2023-01-01T14:13:06.553Z,87070.09
2023-01-01T14:15:35.509Z,87079.78
2023-01-01T14:18:07.013Z,87079.03
2023-01-01T14:20:43.541Z,87055.16
2023-01-01T14:23:36.887Z,87077.31
2023-01-01T14:26:10.120Z,87082.75
2023-01-01T14:28:39.044Z,87089.56
2023-01-01T14:31:18.861Z,87089.44
2023-01-01T14:33:47.522Z,87094.66
2023-01-01T14:36:22.142Z,87091.72
2023-01-01T14:38:51.470Z,87095.72
2023-01-01T14:41:51.484Z,87101.75
2023-01-01T14:44:23.415Z,87096.88
2023-01-01T14:46:53.579Z,87080.09
2023-01-01T14:49:30.631Z,87065.97
2023-01-01T14:52:02.021Z,87096.69
2023-01-01T14:54:33.728Z,87095.31
2023-01-01T14:57:01.211Z,87088.38
2023-01-01T14:59:34.128Z,87089.66
2023-01-01T15:02:17.908Z,87101.19
2023-01-01T15:04:45.102Z,87091.50
2023-01-01T15:07:31.763Z,87102.91
2023-01-01T15:10:01.869Z,87054.00
2023-01-01T15:12:31.925Z,87105.22
2023-01-01T15:14:58.884Z,87103.63
2023-01-01T15:17:27.586Z,87059.00
2023-01-01T15:20:21.856Z,87102.25
2023-01-01T15:22:49.946Z,87097.28
2023-01-01T15:25:19.247Z,87075.53
2023-01-01T15:27:51.637Z,87104.78
2023-01-01T15:30:26.514Z,87113.06
2023-01-01T15:32:53.781Z,87115.72
2023-01-01T15:35:32.371Z,87091.22
2023-01-01T15:38:22.965Z,87122.56
2023-01-01T15:40:53.514Z,87118.38
2023-01-01T15:43:23.389Z,87111.38
2023-01-01T15:45:52.828Z,87112.69
2023-01-01T15:48:28.511Z,87102.28
2023-01-01T15:50:59.810Z,87119.63
2023-01-01T15:53:29.432Z,87097.84
2023-01-01T15:56:06.025Z,87131.88
2023-01-01T15:58:34.733Z,87128.91
2023-01-01T16:01:11.606Z,87120.41
2023-01-01T16:03:41.334Z,87096.63
2023-01-01T16:06:15.824Z,87120.16
2023-01-01T16:08:42.839Z,87085.97
2023-01-01T16:11:09.913Z,87050.25
2023-01-01T16:13:36.887Z,87083.56
2023-01-01T16:16:04.921Z,87103.81
2023-01-01T16:18:37.317Z,87127.38
2023-01-01T16:21:05.689Z,87133.06
2023-01-01T16:23:32.873Z,87123.13
2023-01-01T16:25:59.933Z,87102.13
2023-01-01T16:28:26.951Z,87133.59
2023-01-01T16:30:55.005Z,87137.63
2023-01-01T16:33:23.097Z,87087.31
2023-01-01T16:35:51.255Z,87129.13
2023-01-01T16:38:18.745Z,87105.34
2023-01-01T16:40:45.816Z,87135.97
2023-01-01T16:43:16.620Z,87144.13
2023-01-01T16:45:44.752Z,87093.97
2023-01-01T16:48:12.124Z,87122.94
2023-01-01T16:50:39.270Z,87135.72
2023-01-01T16:53:06.361Z,87121.34
2023-01-01T16:55:33.454Z,87137.25
2023-01-01T16:58:38.156Z,87141.97
2023-01-01T17:00:48.137Z,87142.00
2023-01-01T17:03:15.645Z,87135.00
2023-01-01T17:05:44.541Z,87139.81
2023-01-01T17:08:12.114Z,87098.69
2023-01-01T17:10:39.250Z,87113.78
2023-01-01T17:13:10.173Z,87130.72
2023-01-01T17:15:37.374Z,87137.81
2023-01-01T17:18:04.957Z,87109.06
2023-01-01T17:20:34.256Z,87135.72
2023-01-01T17:23:01.352Z,87111.97
2023-01-01T17:25:28.595Z,87133.44
2023-01-01T17:27:55.520Z,87079.59
2023-01-01T17:30:22.549Z,87141.91
2023-01-01T17:32:49.672Z,87144.59
2023-01-01T17:35:16.779Z,87151.50
2023-01-01T17:37:43.824Z,87134.72
2023-01-01T17:40:11.197Z,87154.22
2023-01-01T17:42:38.141Z,87117.97
2023-01-01T17:45:05.730Z,87158.28
2023-01-01T17:47:33.609Z,87128.28
2023-01-01T17:50:00.983Z,87144.00
2023-01-01T17:52:28.393Z,87154.41
2023-01-01T17:55:02.652Z,87143.69
2023-01-01T17:57:29.762Z,87114.38
2023-01-01T17:59:59.082Z,87156.25
2023-01-01T18:02:26.565Z,87119.97
2023-01-01T18:04:54.046Z,87150.88
2023-01-01T18:07:28.587Z,87156.25
2023-01-01T18:09:55.462Z,87157.59
2023-01-01T18:12:25.303Z,87136.44
2023-01-01T18:14:52.291Z,87150.47
2023-01-01T18:17:19.289Z,87153.25
2023-01-01T18:19:46.255Z,87153.28
2023-01-01T18:22:13.524Z,87134.22
2023-01-01T18:24:40.585Z,87143.34
2023-01-01T18:27:08.403Z,87116.00
2023-01-01T18:29:39.170Z,87135.97
2023-01-01T18:32:06.131Z,87123.38
2023-01-01T18:34:33.159Z,87145.00
2023-01-01T18:37:00.157Z,87126.19
2023-01-01T18:39:28.798Z,87148.56
2023-01-01T18:41:55.687Z,87147.19
2023-01-01T18:44:25.196Z,87149.94
2023-01-01T18:47:02.151Z,87148.56
2023-01-01T18:49:29.205Z,87109.50
2023-01-01T18:52:03.112Z,87135.47
2023-01-01T18:54:30.136Z,87100.63
2023-01-01T18:57:29.351Z,87144.69
2023-01-01T19:00:00.215Z,87150.75
2023-01-01T19:02:45.400Z,87128.38
2023-01-01T19:05:17.446Z,87139.50
2023-01-01T19:07:51.349Z,87123.22
2023-01-01T19:10:20.661Z,87116.41
2023-01-01T19:12:48.449Z,87140.34
2023-01-01T19:15:22.708Z,87129.69
2023-01-01T19:17:49.660Z,87145.75
2023-01-01T19:20:21.663Z,87142.38
2023-01-01T19:22:49.311Z,87121.97
2023-01-01T19:25:31.384Z,87145.66
2023-01-01T19:28:26.308Z,87130.53
2023-01-01T19:30:53.330Z,87124.78
2023-01-01T19:33:20.272Z,87138.00
2023-01-01T19:35:47.131Z,87134.47
2023-01-01T19:38:14.494Z,87105.88
2023-01-01T19:40:41.573Z,87140.06
2023-01-01T19:43:08.936Z,87124.78
2023-01-01T19:45:35.870Z,87135.88
2023-01-01T19:48:02.950Z,87138.44
2023-01-01T19:50:30.005Z,87098.72
2023-01-01T19:52:56.896Z,87140.56
2023-01-01T19:55:24.023Z,87118.88
2023-01-01T19:57:50.928Z,87102.28
2023-01-01T20:00:18.210Z,87130.81
2023-01-01T20:02:47.138Z,87131.53
2023-01-01T20:05:15.248Z,87118.78
2023-01-01T20:07:42.308Z,87134.28
2023-01-01T20:10:09.909Z,87146.03
2023-01-01T20:12:44.296Z,87148.66
2023-01-01T20:15:13.676Z,87148.09
2023-01-01T20:17:42.047Z,87139.75
2023-01-01T20:20:10.523Z,87134.22
2023-01-01T20:22:37.559Z,87090.94
2023-01-01T20:25:05.300Z,87145.28
2023-01-01T20:27:33.278Z,87138.44
2023-01-01T20:30:00.308Z,87153.53
2023-01-01T20:32:28.815Z,87140.47
2023-01-01T20:34:56.043Z,87134.75
2023-01-01T20:37:37.958Z,87143.03
2023-01-01T20:40:10.855Z,87140.94
2023-01-01T20:42:37.945Z,87152.03
2023-01-01T20:45:06.959Z,87143.94
2023-01-01T20:47:34.557Z,87152.78
2023-01-01T20:50:01.657Z,87152.03
2023-01-01T20:52:28.672Z,87100.50
2023-01-01T20:54:55.671Z,87096.41
2023-01-01T20:57:22.690Z,87115.38
2023-01-01T20:59:49.729Z,87142.50
2023-01-01T21:02:16.906Z,87124.16
2023-01-01T21:04:43.913Z,87118.66
2023-01-01T21:07:12.337Z,87132.63
2023-01-01T21:09:40.387Z,87139.72
2023-01-01T21:12:08.764Z,87142.50
2023-01-01T21:14:36.256Z,87106.38
2023-01-01T21:17:19.040Z,87137.00
2023-01-01T21:19:46.122Z,87096.50
2023-01-01T21:22:13.391Z,87136.34
2023-01-01T21:24:40.603Z,87100.69
2023-01-01T21:27:18.077Z,87143.75
2023-01-01T21:29:48.183Z,87100.50
2023-01-01T21:32:21.099Z,87138.38
2023-01-01T21:34:50.533Z,87113.06
2023-01-01T21:37:57.837Z,87143.91
2023-01-01T21:40:43.489Z,87141.56
2023-01-01T21:43:19.544Z,87140.84
2023-01-01T21:45:48.532Z,87138.09
2023-01-01T21:48:55.719Z,87119.84
2023-01-01T21:51:24.856Z,87130.88
2023-01-01T21:53:54.123Z,87111.63
2023-01-01T21:56:32.442Z,87125.53
2023-01-01T21:59:26.329Z,87118.38
2023-01-01T22:02:29.062Z,87114.47
2023-01-01T22:04:56.268Z,87093.28
2023-01-01T22:10:22.229Z,87124.00
2023-01-01T22:12:59.278Z,87111.72
2023-01-01T22:15:26.952Z,87113.88
2023-01-01T22:18:12.374Z,87121.38
2023-01-01T22:20:45.286Z,87084.78
2023-01-01T22:23:40.200Z,87121.75
2023-01-01T22:26:28.159Z,87090.69
2023-01-01T22:29:15.535Z,87105.88
2023-01-01T22:31:48.898Z,87109.88
2023-01-01T22:34:22.436Z,87021.69
2023-01-01T22:36:49.638Z,87098.66
2023-01-01T22:39:35.616Z,87070.09
2023-01-01T22:42:03.825Z,87041.56
2023-01-01T22:44:33.745Z,87100.16
2023-01-01T22:47:01.789Z,87062.56
2023-01-01T22:49:39.288Z,87095.97
2023-01-01T22:52:07.725Z,87072.97
2023-01-01T22:54:34.716Z,87093.06
2023-01-01T22:57:02.203Z,87097.16
2023-01-01T22:59:29.170Z,87027.50
2023-01-01T23:01:56.352Z,87075.00
2023-01-01T23:04:23.411Z,87045.13
2023-01-01T23:06:50.534Z,87067.88
2023-01-01T23:09:17.873Z,87036.44
2023-01-01T23:11:45.078Z,87062.38
2023-01-01T23:14:35.516Z,87092.16
2023-01-01T23:17:05.548Z,87049.59
2023-01-01T23:19:32.687Z,87080.25
2023-01-01T23:22:03.173Z,87051.06
2023-01-01T23:24:31.516Z,87077.78
2023-01-01T23:26:59.132Z,87067.09
2023-01-01T23:29:30.351Z,87049.72
2023-01-01T23:31:57.526Z,87069.50
2023-01-01T23:34:24.791Z,87065.13
2023-01-01T23:36:53.871Z,87046.97
2023-01-01T23:39:21.262Z,87065.31
2023-01-01T23:41:48.935Z,87062.63
2023-01-01T23:44:16.015Z,87066.53
2023-01-01T23:46:43.437Z,87063.69
2023-01-01T23:49:10.759Z,87072.19
2023-01-01T23:51:38.266Z,87030.41
2023-01-01T23:54:05.396Z,87010.59
2023-01-01T23:56:32.335Z,87063.69
2023-01-01T23:58:59.426Z,87078.81
